sensor_id;sensor_type;location;lat;lon;timestamp;pressure;altitude;pressure_sealevel;temperature;humidity
10618;BME280;5356;43.526;26.534;2023-05-12T00:01:25;99634.34;;;9.56;100.00
10618;BME280;5356;43.526;26.534;2023-05-12T00:03:51;99638.28;;;9.60;100.00
10618;BME280;5356;43.526;26.534;2023-05-12T00:06:18;99630.69;;;9.63;100.00
10618;BME280;5356;43.526;26.534;2023-05-12T00:08:44;99628.22;;;9.62;100.00
10618;BME280;5356;43.526;26.534;2023-05-12T00:11:09;99616.38;;;9.51;100.00
10618;BME280;5356;43.526;26.534;2023-05-12T00:13:35;99627.78;;;9.45;100.00
10618;BME280;5356;43.526;26.534;2023-05-12T00:16:01;99621.06;;;9.49;100.00
10618;BME280;5356;43.526;26.534;2023-05-12T00:18:26;99626.78;;;9.53;100.00
10618;BME280;5356;43.526;26.534;2023-05-12T00:20:53;99632.31;;;9.58;100.00
10618;BME280;5356;43.526;26.534;2023-05-12T00:23:19;99623.75;;;9.62;100.00
10618;BME280;5356;43.526;26.534;2023-05-12T00:25:45;99626.59;;;9.67;100.00
10618;BME280;5356;43.526;26.534;2023-05-12T00:28:10;99622.94;;;9.69;100.00
10618;BME280;5356;43.526;26.534;2023-05-12T00:30:36;99629.06;;;9.76;100.00
10618;BME280;5356;43.526;26.534;2023-05-12T00:33:01;99621.72;;;9.78;100.00
10618;BME280;5356;43.526;26.534;2023-05-12T00:35:27;99625.78;;;9.74;100.00
10618;BME280;5356;43.526;26.534;2023-05-12T00:37:52;99626.22;;;9.77;100.00
10618;BME280;5356;43.526;26.534;2023-05-12T00:40:18;99631.94;;;9.81;100.00
10618;BME280;5356;43.526;26.534;2023-05-12T00:42:43;99624.16;;;9.66;100.00
10618;BME280;5356;43.526;26.534;2023-05-12T00:45:09;99635.81;;;9.72;100.00
10618;BME280;5356;43.526;26.534;2023-05-12T00:47:35;99630.50;;;9.72;100.00
10618;BME280;5356;43.526;26.534;2023-05-12T00:50:03;99632.75;;;9.75;100.00
10618;BME280;5356;43.526;26.534;2023-05-12T00:52:29;99631.13;;;9.80;100.00
10618;BME280;5356;43.526;26.534;2023-05-12T00:54:56;99631.75;;;9.82;100.00
10618;BME280;5356;43.526;26.534;2023-05-12T00:57:21;99625.19;;;9.85;100.00
10618;BME280;5356;43.526;26.534;2023-05-12T00:59:49;99621.28;;;9.81;100.00
10618;BME280;5356;43.526;26.534;2023-05-12T01:02:15;99623.97;;;9.81;100.00
10618;BME280;5356;43.526;26.534;2023-05-12T01:04:40;99626.44;;;9.82;100.00
10618;BME280;5356;43.526;26.534;2023-05-12T01:07:14;99621.28;;;9.81;100.00
10618;BME280;5356;43.526;26.534;2023-05-12T01:09:42;99625.81;;;9.80;100.00
10618;BME280;5356;43.526;26.534;2023-05-12T01:12:07;99631.09;;;9.74;100.00
10618;BME280;5356;43.526;26.534;2023-05-12T01:14:33;99629.06;;;9.62;100.00
10618;BME280;5356;43.526;26.534;2023-05-12T01:17:00;99634.16;;;9.64;100.00
10618;BME280;5356;43.526;26.534;2023-05-12T01:21:59;99628.03;;;9.70;100.00
10618;BME280;5356;43.526;26.534;2023-05-12T01:24:26;99629.06;;;9.76;100.00
10618;BME280;5356;43.526;26.534;2023-05-12T01:26:53;99639.31;;;9.79;100.00
10618;BME280;5356;43.526;26.534;2023-05-12T01:29:20;99627.84;;;9.72;100.00
10618;BME280;5356;43.526;26.534;2023-05-12T01:31:47;99629.47;;;9.73;100.00
10618;BME280;5356;43.526;26.534;2023-05-12T01:34:16;99636.84;;;9.77;100.00
10618;BME280;5356;43.526;26.534;2023-05-12T01:36:43;99627.03;;;9.78;100.00
10618;BME280;5356;43.526;26.534;2023-05-12T01:39:08;99620.88;;;9.71;100.00
10618;BME280;5356;43.526;26.534;2023-05-12T01:41:34;99625.97;;;9.52;100.00
10618;BME280;5356;43.526;26.534;2023-05-12T01:44:00;99619.63;;;9.40;100.00
10618;BME280;5356;43.526;26.534;2023-05-12T01:46:25;99622.88;;;9.42;100.00
10618;BME280;5356;43.526;26.534;2023-05-12T01:48:51;99615.94;;;9.41;100.00
10618;BME280;5356;43.526;26.534;2023-05-12T01:51:16;99632.31;;;9.51;100.00
10618;BME280;5356;43.526;26.534;2023-05-12T01:53:42;99629.84;;;9.56;100.00
10618;BME280;5356;43.526;26.534;2023-05-12T01:56:07;99627.41;;;9.61;100.00
10618;BME280;5356;43.526;26.534;2023-05-12T01:58:33;99631.50;;;9.71;100.00
10618;BME280;5356;43.526;26.534;2023-05-12T02:00:58;99626.00;;;9.79;100.00
10618;BME280;5356;43.526;26.534;2023-05-12T02:03:24;99615.13;;;9.74;100.00
10618;BME280;5356;43.526;26.534;2023-05-12T02:05:49;99621.28;;;9.81;100.00
10618;BME280;5356;43.526;26.534;2023-05-12T02:08:15;99631.75;;;9.89;100.00
10618;BME280;5356;43.526;26.534;2023-05-12T02:10:40;99620.47;;;9.87;100.00
10618;BME280;5356;43.526;26.534;2023-05-12T02:13:06;99620.47;;;9.74;100.00
10618;BME280;5356;43.526;26.534;2023-05-12T02:15:31;99619.47;;;9.75;100.00
10618;BME280;5356;43.526;26.534;2023-05-12T02:17:57;99618.22;;;9.77;100.00
10618;BME280;5356;43.526;26.534;2023-05-12T02:20:22;99615.56;;;9.84;100.00
10618;BME280;5356;43.526;26.534;2023-05-12T02:22:48;99616.59;;;9.83;100.00
10618;BME280;5356;43.526;26.534;2023-05-12T02:25:13;99609.03;;;9.80;100.00
10618;BME280;5356;43.526;26.534;2023-05-12T02:27:39;99610.44;;;9.76;100.00
10618;BME280;5356;43.526;26.534;2023-05-12T02:30:05;99618.03;;;9.85;100.00
10618;BME280;5356;43.526;26.534;2023-05-12T02:32:31;99618.44;;;9.89;100.00
10618;BME280;5356;43.526;26.534;2023-05-12T02:34:56;99617.19;;;9.85;100.00
10618;BME280;5356;43.526;26.534;2023-05-12T02:37:22;99620.88;;;9.84;100.00
10618;BME280;5356;43.526;26.534;2023-05-12T02:39:47;99615.56;;;9.84;100.00
10618;BME280;5356;43.526;26.534;2023-05-12T02:42:13;99625.59;;;9.82;100.00
10618;BME280;5356;43.526;26.534;2023-05-12T02:44:38;99623.97;;;9.87;100.00
10618;BME280;5356;43.526;26.534;2023-05-12T02:47:04;99618.84;;;9.93;100.00
10618;BME280;5356;43.526;26.534;2023-05-12T02:49:30;99629.72;;;9.91;100.00
10618;BME280;5356;43.526;26.534;2023-05-12T02:51:56;99624.97;;;9.93;100.00
10618;BME280;5356;43.526;26.534;2023-05-12T02:54:22;99630.72;;;9.97;100.00
10618;BME280;5356;43.526;26.534;2023-05-12T02:56:47;99627.84;;;9.98;100.00
10618;BME280;5356;43.526;26.534;2023-05-12T02:59:13;99627.03;;;9.98;100.00
10618;BME280;5356;43.526;26.534;2023-05-12T03:01:38;99635.63;;;9.93;100.00
10618;BME280;5356;43.526;26.534;2023-05-12T03:04:04;99626.63;;;9.81;100.00
10618;BME280;5356;43.526;26.534;2023-05-12T03:06:29;99631.94;;;9.74;100.00
10618;BME280;5356;43.526;26.534;2023-05-12T03:08:55;99628.25;;;9.75;100.00
10618;BME280;5356;43.526;26.534;2023-05-12T03:11:21;99629.28;;;9.81;100.00
10618;BME280;5356;43.526;26.534;2023-05-12T03:13:46;99633.38;;;9.83;100.00
10618;BME280;5356;43.526;26.534;2023-05-12T03:16:12;99629.91;;;9.89;100.00
10618;BME280;5356;43.526;26.534;2023-05-12T03:18:38;99630.94;;;9.95;100.00
10618;BME280;5356;43.526;26.534;2023-05-12T03:21:03;99634.22;;;9.97;100.00
10618;BME280;5356;43.526;26.534;2023-05-12T03:23:29;99631.94;;;10.01;100.00
10618;BME280;5356;43.526;26.534;2023-05-12T03:25:55;99624.38;;;10.04;100.00
10618;BME280;5356;43.526;26.534;2023-05-12T03:28:21;99639.94;;;10.07;100.00
10618;BME280;5356;43.526;26.534;2023-05-12T03:30:48;99640.34;;;10.11;100.00
10618;BME280;5356;43.526;26.534;2023-05-12T03:33:14;99639.31;;;10.12;100.00
10618;BME280;5356;43.526;26.534;2023-05-12T03:35:39;99637.69;;;10.18;100.00
10618;BME280;5356;43.526;26.534;2023-05-12T03:38:04;99639.75;;;10.22;100.00
10618;BME280;5356;43.526;26.534;2023-05-12T03:40:30;99644.25;;;10.28;100.00
10618;BME280;5356;43.526;26.534;2023-05-12T03:42:55;99645.06;;;10.36;100.00
10618;BME280;5356;43.526;26.534;2023-05-12T03:45:21;99651.63;;;10.40;100.00
10618;BME280;5356;43.526;26.534;2023-05-12T03:47:46;99652.03;;;10.43;100.00
10618;BME280;5356;43.526;26.534;2023-05-12T03:50:12;99652.03;;;10.43;100.00
10618;BME280;5356;43.526;26.534;2023-05-12T03:52:37;99662.25;;;10.46;100.00
10618;BME280;5356;43.526;26.534;2023-05-12T03:55:05;99666.59;;;10.47;100.00
10618;BME280;5356;43.526;26.534;2023-05-12T03:57:31;99663.91;;;10.47;100.00
10618;BME280;5356;43.526;26.534;2023-05-12T03:59:57;99669.66;;;10.51;100.00
10618;BME280;5356;43.526;26.534;2023-05-12T04:02:22;99665.09;;;10.58;100.00
10618;BME280;5356;43.526;26.534;2023-05-12T04:04:47;99674.13;;;10.57;100.00
10618;BME280;5356;43.526;26.534;2023-05-12T04:07:13;99675.56;;;10.60;100.00
10618;BME280;5356;43.526;26.534;2023-05-12T04:09:38;99670.44;;;10.65;100.00
10618;BME280;5356;43.526;26.534;2023-05-12T04:12:04;99673.50;;;10.68;100.00
10618;BME280;5356;43.526;26.534;2023-05-12T04:14:30;99682.50;;;10.74;100.00
10618;BME280;5356;43.526;26.534;2023-05-12T04:16:55;99685.16;;;10.81;100.00
10618;BME280;5356;43.526;26.534;2023-05-12T04:19:22;99685.16;;;10.87;100.00
10618;BME280;5356;43.526;26.534;2023-05-12T04:21:48;99671.41;;;10.90;100.00
10618;BME280;5356;43.526;26.534;2023-05-12T04:24:13;99672.00;;;10.92;100.00
10618;BME280;5356;43.526;26.534;2023-05-12T04:26:39;99685.53;;;10.97;100.00
10618;BME280;5356;43.526;26.534;2023-05-12T04:29:04;99691.25;;;11.01;100.00
10618;BME280;5356;43.526;26.534;2023-05-12T04:31:31;99684.09;;;11.01;100.00
10618;BME280;5356;43.526;26.534;2023-05-12T04:33:57;99682.19;;;11.09;100.00
10618;BME280;5356;43.526;26.534;2023-05-12T04:36:22;99680.16;;;11.11;100.00
10618;BME280;5356;43.526;26.534;2023-05-12T04:38:48;99683.81;;;11.16;100.00
10618;BME280;5356;43.526;26.534;2023-05-12T04:41:13;99678.06;;;11.19;100.00
10618;BME280;5356;43.526;26.534;2023-05-12T04:43:39;99673.09;;;11.30;100.00
10618;BME280;5356;43.526;26.534;2023-05-12T04:46:04;99676.78;;;11.35;100.00
10618;BME280;5356;43.526;26.534;2023-05-12T04:48:29;99675.94;;;11.41;100.00
10618;BME280;5356;43.526;26.534;2023-05-12T04:50:57;99687.97;;;11.51;100.00
10618;BME280;5356;43.526;26.534;2023-05-12T04:53:23;99673.59;;;11.52;100.00
10618;BME280;5356;43.526;26.534;2023-05-12T04:55:49;99688.38;;;11.54;100.00
10618;BME280;5356;43.526;26.534;2023-05-12T04:58:15;99670.47;;;11.61;100.00
10618;BME280;5356;43.526;26.534;2023-05-12T05:00:41;99683.78;;;11.68;100.00
10618;BME280;5356;43.526;26.534;2023-05-12T05:03:06;99684.13;;;11.78;100.00
10618;BME280;5356;43.526;26.534;2023-05-12T05:05:32;99687.78;;;11.90;100.00
10618;BME280;5356;43.526;26.534;2023-05-12T05:07:58;99690.25;;;11.92;100.00
10618;BME280;5356;43.526;26.534;2023-05-12T05:10:23;99681.56;;;11.97;100.00
10618;BME280;5356;43.526;26.534;2023-05-12T05:12:49;99679.69;;;12.04;100.00
10618;BME280;5356;43.526;26.534;2023-05-12T05:15:14;99683.09;;;12.11;100.00
10618;BME280;5356;43.526;26.534;2023-05-12T05:17:40;99684.25;;;12.22;100.00
10618;BME280;5356;43.526;26.534;2023-05-12T05:20:07;99680.50;;;12.29;100.00
10618;BME280;5356;43.526;26.534;2023-05-12T05:22:33;99687.84;;;12.34;100.00
10618;BME280;5356;43.526;26.534;2023-05-12T05:24:58;99688.41;;;12.43;100.00
10618;BME280;5356;43.526;26.534;2023-05-12T05:27:24;99691.38;;;12.53;100.00
10618;BME280;5356;43.526;26.534;2023-05-12T05:29:49;99692.00;;;12.55;100.00
10618;BME280;5356;43.526;26.534;2023-05-12T05:32:15;99691.72;;;12.63;100.00
10618;BME280;5356;43.526;26.534;2023-05-12T05:34:40;99697.06;;;12.63;100.00
10618;BME280;5356;43.526;26.534;2023-05-12T05:37:06;99693.94;;;12.66;100.00
10618;BME280;5356;43.526;26.534;2023-05-12T05:39:31;99702.69;;;12.73;100.00
10618;BME280;5356;43.526;26.534;2023-05-12T05:41:57;99701.69;;;12.74;100.00
10618;BME280;5356;43.526;26.534;2023-05-12T05:44:23;99701.44;;;12.76;100.00
10618;BME280;5356;43.526;26.534;2023-05-12T05:46:49;99707.19;;;12.79;100.00
10618;BME280;5356;43.526;26.534;2023-05-12T05:49:15;99699.44;;;12.71;100.00
10618;BME280;5356;43.526;26.534;2023-05-12T05:51:40;99706.13;;;12.80;100.00
10618;BME280;5356;43.526;26.534;2023-05-12T05:54:06;99702.19;;;12.83;100.00
10618;BME280;5356;43.526;26.534;2023-05-12T05:56:31;99714.75;;;12.83;100.00
10618;BME280;5356;43.526;26.534;2023-05-12T05:59:00;99706.28;;;12.86;100.00
10618;BME280;5356;43.526;26.534;2023-05-12T06:01:27;99715.50;;;12.90;100.00
10618;BME280;5356;43.526;26.534;2023-05-12T06:03:53;99711.47;;;12.99;100.00
10618;BME280;5356;43.526;26.534;2023-05-12T06:06:18;99710.75;;;13.10;100.00
10618;BME280;5356;43.526;26.534;2023-05-12T06:08:44;99713.13;;;13.18;100.00
10618;BME280;5356;43.526;26.534;2023-05-12T06:11:10;99721.47;;;13.29;100.00
10618;BME280;5356;43.526;26.534;2023-05-12T06:13:36;99720.72;;;13.40;100.00
10618;BME280;5356;43.526;26.534;2023-05-12T06:16:01;99718.09;;;13.52;100.00
10618;BME280;5356;43.526;26.534;2023-05-12T06:18:27;99720.47;;;13.60;100.00
10618;BME280;5356;43.526;26.534;2023-05-12T06:20:52;99711.03;;;13.57;100.00
10618;BME280;5356;43.526;26.534;2023-05-12T06:23:18;99709.03;;;13.53;100.00
10618;BME280;5356;43.526;26.534;2023-05-12T06:25:43;99706.34;;;13.53;100.00
10618;BME280;5356;43.526;26.534;2023-05-12T06:28:09;99708.66;;;13.49;100.00
10618;BME280;5356;43.526;26.534;2023-05-12T06:30:34;99710.38;;;13.62;100.00
10618;BME280;5356;43.526;26.534;2023-05-12T06:33:00;99709.59;;;13.73;100.00
10618;BME280;5356;43.526;26.534;2023-05-12T06:35:27;99711.56;;;13.78;100.00
10618;BME280;5356;43.526;26.534;2023-05-12T06:37:53;99707.97;;;13.84;100.00
10618;BME280;5356;43.526;26.534;2023-05-12T06:40:18;99703.00;;;13.87;100.00
10618;BME280;5356;43.526;26.534;2023-05-12T06:42:44;99710.47;;;13.97;100.00
10618;BME280;5356;43.526;26.534;2023-05-12T06:45:09;99710.75;;;14.07;100.00
10618;BME280;5356;43.526;26.534;2023-05-12T06:47:37;99710.16;;;14.17;100.00
10618;BME280;5356;43.526;26.534;2023-05-12T06:50:03;99702.38;;;14.15;100.00
10618;BME280;5356;43.526;26.534;2023-05-12T06:52:28;99705.41;;;14.19;100.00
10618;BME280;5356;43.526;26.534;2023-05-12T06:54:54;99701.00;;;14.25;100.00
10618;BME280;5356;43.526;26.534;2023-05-12T06:57:19;99704.97;;;14.34;100.00
10618;BME280;5356;43.526;26.534;2023-05-12T06:59:45;99707.16;;;14.37;97.96
10618;BME280;5356;43.526;26.534;2023-05-12T07:02:10;99709.63;;;14.50;97.05
10618;BME280;5356;43.526;26.534;2023-05-12T07:04:36;99708.56;;;14.51;95.43
10618;BME280;5356;43.526;26.534;2023-05-12T07:07:01;99713.41;;;14.61;93.43
10618;BME280;5356;43.526;26.534;2023-05-12T07:09:27;99710.72;;;14.61;92.94
10618;BME280;5356;43.526;26.534;2023-05-12T07:11:52;99721.69;;;14.71;91.72
10618;BME280;5356;43.526;26.534;2023-05-12T07:14:18;99718.97;;;14.83;90.31
10618;BME280;5356;43.526;26.534;2023-05-12T07:16:43;99720.63;;;14.84;89.69
10618;BME280;5356;43.526;26.534;2023-05-12T07:19:09;99718.53;;;14.98;89.15
10618;BME280;5356;43.526;26.534;2023-05-12T07:21:35;99714.09;;;15.03;88.48
10618;BME280;5356;43.526;26.534;2023-05-12T07:24:01;99720.84;;;15.06;87.47
10618;BME280;5356;43.526;26.534;2023-05-12T07:26:26;99721.06;;;15.04;84.72
10618;BME280;5356;43.526;26.534;2023-05-12T07:28:53;99724.69;;;15.10;85.94
10618;BME280;5356;43.526;26.534;2023-05-12T07:31:19;99720.81;;;15.18;83.49
10618;BME280;5356;43.526;26.534;2023-05-12T07:33:44;99723.69;;;15.28;82.25
10618;BME280;5356;43.526;26.534;2023-05-12T07:36:10;99723.91;;;15.38;81.67
10618;BME280;5356;43.526;26.534;2023-05-12T07:38:35;99728.66;;;15.48;81.01
10618;BME280;5356;43.526;26.534;2023-05-12T07:41:01;99728.88;;;15.58;80.40
10618;BME280;5356;43.526;26.534;2023-05-12T07:43:28;99716.94;;;15.66;79.77
10618;BME280;5356;43.526;26.534;2023-05-12T07:45:53;99719.06;;;15.64;77.97
10618;BME280;5356;43.526;26.534;2023-05-12T07:48:20;99723.59;;;15.75;78.64
10618;BME280;5356;43.526;26.534;2023-05-12T07:50:46;99719.44;;;15.84;78.28
10618;BME280;5356;43.526;26.534;2023-05-12T07:53:11;99721.94;;;16.03;78.59
10618;BME280;5356;43.526;26.534;2023-05-12T07:55:37;99723.16;;;15.95;74.83
10618;BME280;5356;43.526;26.534;2023-05-12T07:58:02;99721.84;;;15.98;73.99
10618;BME280;5356;43.526;26.534;2023-05-12T08:00:28;99721.28;;;15.96;73.15
10618;BME280;5356;43.526;26.534;2023-05-12T08:02:53;99715.50;;;16.04;72.61
10618;BME280;5356;43.526;26.534;2023-05-12T08:05:19;99726.50;;;16.02;71.30
10618;BME280;5356;43.526;26.534;2023-05-12T08:07:45;99719.25;;;16.03;71.71
10618;BME280;5356;43.526;26.534;2023-05-12T08:10:11;99720.66;;;16.22;69.24
10618;BME280;5356;43.526;26.534;2023-05-12T08:12:38;99722.59;;;16.10;67.31
10618;BME280;5356;43.526;26.534;2023-05-12T08:15:05;99707.03;;;16.12;67.64
10618;BME280;5356;43.526;26.534;2023-05-12T08:17:31;99716.25;;;16.16;67.90
10618;BME280;5356;43.526;26.534;2023-05-12T08:19:56;99718.38;;;16.14;66.97
10618;BME280;5356;43.526;26.534;2023-05-12T08:22:22;99715.75;;;16.19;66.70
10618;BME280;5356;43.526;26.534;2023-05-12T08:24:47;99712.59;;;16.22;67.05
10618;BME280;5356;43.526;26.534;2023-05-12T08:27:13;99723.28;;;16.34;66.16
10618;BME280;5356;43.526;26.534;2023-05-12T08:29:38;99717.63;;;16.35;63.97
10618;BME280;5356;43.526;26.534;2023-05-12T08:32:04;99720.41;;;16.41;65.45
10618;BME280;5356;43.526;26.534;2023-05-12T08:34:30;99726.50;;;16.53;65.12
10618;BME280;5356;43.526;26.534;2023-05-12T08:36:55;99726.88;;;16.56;65.80
10618;BME280;5356;43.526;26.534;2023-05-12T08:39:21;99723.25;;;16.68;65.46
10618;BME280;5356;43.526;26.534;2023-05-12T08:44:37;99723.59;;;16.71;63.85
10618;BME280;5356;43.526;26.534;2023-05-12T08:47:04;99716.63;;;16.75;64.86
10618;BME280;5356;43.526;26.534;2023-05-12T08:49:31;99727.00;;;16.83;63.91
10618;BME280;5356;43.526;26.534;2023-05-12T08:52:00;99735.16;;;16.89;62.74
10618;BME280;5356;43.526;26.534;2023-05-12T08:54:27;99728.53;;;16.96;62.13
10618;BME280;5356;43.526;26.534;2023-05-12T08:56:53;99727.09;;;16.89;61.62
10618;BME280;5356;43.526;26.534;2023-05-12T08:59:18;99717.72;;;16.91;62.13
10618;BME280;5356;43.526;26.534;2023-05-12T09:01:44;99729.94;;;16.99;61.52
10618;BME280;5356;43.526;26.534;2023-05-12T09:04:11;99727.63;;;17.08;60.72
10618;BME280;5356;43.526;26.534;2023-05-12T09:06:40;99718.97;;;17.05;60.76
10618;BME280;5356;43.526;26.534;2023-05-12T09:09:05;99717.34;;;17.04;61.63
10618;BME280;5356;43.526;26.534;2023-05-12T09:11:32;99713.72;;;16.94;62.01
10618;BME280;5356;43.526;26.534;2023-05-12T09:13:59;99720.28;;;17.03;62.05
10618;BME280;5356;43.526;26.534;2023-05-12T09:16:28;99718.16;;;17.05;61.79
10618;BME280;5356;43.526;26.534;2023-05-12T09:18:56;99715.16;;;17.01;61.91
10618;BME280;5356;43.526;26.534;2023-05-12T09:21:22;99714.69;;;16.88;61.66
10618;BME280;5356;43.526;26.534;2023-05-12T09:24:01;99723.28;;;16.85;62.64
10618;BME280;5356;43.526;26.534;2023-05-12T09:26:32;99716.25;;;16.83;62.19
10618;BME280;5356;43.526;26.534;2023-05-12T09:29:08;99720.25;;;16.81;61.64
10618;BME280;5356;43.526;26.534;2023-05-12T09:31:34;99725.28;;;16.94;62.42
10618;BME280;5356;43.526;26.534;2023-05-12T09:33:59;99720.13;;;16.93;62.66
10618;BME280;5356;43.526;26.534;2023-05-12T09:36:27;99713.94;;;16.92;62.36
10618;BME280;5356;43.526;26.534;2023-05-12T09:39:07;99712.91;;;16.93;62.25
10618;BME280;5356;43.526;26.534;2023-05-12T09:41:40;99723.09;;;16.91;61.90
10618;BME280;5356;43.526;26.534;2023-05-12T09:44:08;99719.47;;;17.02;62.77
10618;BME280;5356;43.526;26.534;2023-05-12T09:46:34;99719.66;;;16.96;61.89
10618;BME280;5356;43.526;26.534;2023-05-12T09:49:00;99723.31;;;16.90;63.48
10618;BME280;5356;43.526;26.534;2023-05-12T09:51:28;99721.69;;;16.89;63.18
10618;BME280;5356;43.526;26.534;2023-05-12T09:53:55;99717.41;;;16.88;63.76
10618;BME280;5356;43.526;26.534;2023-05-12T09:56:21;99718.28;;;16.93;62.83
10618;BME280;5356;43.526;26.534;2023-05-12T09:58:48;99713.94;;;16.75;61.22
10618;BME280;5356;43.526;26.534;2023-05-12T10:01:18;99715.53;;;16.54;61.75
10618;BME280;5356;43.526;26.534;2023-05-12T10:03:47;99720.09;;;16.54;62.60
10618;BME280;5356;43.526;26.534;2023-05-12T10:06:26;99723.78;;;16.48;63.42
10618;BME280;5356;43.526;26.534;2023-05-12T10:09:15;99721.47;;;16.56;63.29
10618;BME280;5356;43.526;26.534;2023-05-12T10:11:41;99713.47;;;16.61;62.72
10618;BME280;5356;43.526;26.534;2023-05-12T10:14:07;99715.03;;;16.57;63.61
10618;BME280;5356;43.526;26.534;2023-05-12T10:16:34;99721.56;;;16.45;62.05
10618;BME280;5356;43.526;26.534;2023-05-12T10:19:02;99713.81;;;16.31;62.53
10618;BME280;5356;43.526;26.534;2023-05-12T10:21:28;99711.63;;;16.28;63.17
10618;BME280;5356;43.526;26.534;2023-05-12T10:23:55;99706.00;;;16.30;62.83
10618;BME280;5356;43.526;26.534;2023-05-12T10:26:22;99712.16;;;16.30;63.58
10618;BME280;5356;43.526;26.534;2023-05-12T10:28:48;99707.28;;;16.27;64.25
10618;BME280;5356;43.526;26.534;2023-05-12T10:31:14;99711.53;;;16.23;64.39
10618;BME280;5356;43.526;26.534;2023-05-12T10:33:40;99710.16;;;16.21;63.62
10618;BME280;5356;43.526;26.534;2023-05-12T10:36:18;99708.69;;;16.30;65.38
10618;BME280;5356;43.526;26.534;2023-05-12T10:38:46;99713.00;;;16.48;64.90
10618;BME280;5356;43.526;26.534;2023-05-12T10:41:13;99707.84;;;16.63;65.10
10618;BME280;5356;43.526;26.534;2023-05-12T10:43:41;99715.25;;;16.90;63.76
10618;BME280;5356;43.526;26.534;2023-05-12T10:46:18;99707.97;;;17.07;64.08
10618;BME280;5356;43.526;26.534;2023-05-12T10:49:08;99708.97;;;17.23;64.12
10618;BME280;5356;43.526;26.534;2023-05-12T10:54:10;99706.84;;;17.47;63.20
10618;BME280;5356;43.526;26.534;2023-05-12T10:59:22;99692.34;;;17.53;63.11
10618;BME280;5356;43.526;26.534;2023-05-12T11:02:15;99691.22;;;17.49;61.69
10618;BME280;5356;43.526;26.534;2023-05-12T11:07:08;99693.13;;;17.76;62.81
10618;BME280;5356;43.526;26.534;2023-05-12T11:09:35;99684.63;;;17.84;62.50
10618;BME280;5356;43.526;26.534;2023-05-12T11:12:02;99685.38;;;17.79;61.43
10618;BME280;5356;43.526;26.534;2023-05-12T11:14:30;99684.63;;;17.89;62.40
10618;BME280;5356;43.526;26.534;2023-05-12T11:16:56;99687.38;;;17.94;62.06
10618;BME280;5356;43.526;26.534;2023-05-12T11:19:21;99682.31;;;17.98;62.65
10618;BME280;5356;43.526;26.534;2023-05-12T11:21:48;99694.03;;;17.81;60.10
10618;BME280;5356;43.526;26.534;2023-05-12T11:24:14;99683.00;;;17.61;60.18
10618;BME280;5356;43.526;26.534;2023-05-12T11:26:41;99687.75;;;17.76;62.34
10618;BME280;5356;43.526;26.534;2023-05-12T11:29:06;99688.00;;;18.01;62.48
10618;BME280;5356;43.526;26.534;2023-05-12T11:31:32;99687.56;;;18.14;62.00
10618;BME280;5356;43.526;26.534;2023-05-12T11:34:05;99681.53;;;18.34;61.43
10618;BME280;5356;43.526;26.534;2023-05-12T11:36:35;99678.66;;;18.46;60.75
10618;BME280;5356;43.526;26.534;2023-05-12T11:39:00;99679.06;;;18.28;60.05
10618;BME280;5356;43.526;26.534;2023-05-12T11:41:26;99677.44;;;18.27;60.77
10618;BME280;5356;43.526;26.534;2023-05-12T11:43:52;99669.91;;;18.34;60.29
10618;BME280;5356;43.526;26.534;2023-05-12T11:46:27;99671.19;;;18.21;60.51
10618;BME280;5356;43.526;26.534;2023-05-12T11:48:57;99672.22;;;18.15;61.29
10618;BME280;5356;43.526;26.534;2023-05-12T11:51:24;99669.78;;;18.13;60.42
10618;BME280;5356;43.526;26.534;2023-05-12T11:53:53;99670.84;;;18.12;60.38
10618;BME280;5356;43.526;26.534;2023-05-12T11:56:20;99670.41;;;18.26;60.66
10618;BME280;5356;43.526;26.534;2023-05-12T11:58:53;99674.31;;;18.40;60.35
10618;BME280;5356;43.526;26.534;2023-05-12T12:01:20;99671.41;;;18.52;60.65
10618;BME280;5356;43.526;26.534;2023-05-12T12:03:47;99674.41;;;18.55;58.60
10618;BME280;5356;43.526;26.534;2023-05-12T12:06:13;99671.72;;;18.60;58.51
10618;BME280;5356;43.526;26.534;2023-05-12T12:08:57;99664.84;;;18.75;58.04
10618;BME280;5356;43.526;26.534;2023-05-12T12:11:25;99665.94;;;18.84;56.96
10618;BME280;5356;43.526;26.534;2023-05-12T12:13:55;99669.41;;;18.74;56.22
10618;BME280;5356;43.526;26.534;2023-05-12T12:16:28;99665.75;;;18.53;56.26
10618;BME280;5356;43.526;26.534;2023-05-12T12:18:54;99674.25;;;18.35;56.43
10618;BME280;5356;43.526;26.534;2023-05-12T12:21:20;99669.97;;;18.39;56.55
10618;BME280;5356;43.526;26.534;2023-05-12T12:23:47;99671.03;;;18.38;57.66
10618;BME280;5356;43.526;26.534;2023-05-12T12:26:12;99666.50;;;18.44;57.48
10618;BME280;5356;43.526;26.534;2023-05-12T12:28:50;99665.69;;;18.43;57.90
10618;BME280;5356;43.526;26.534;2023-05-12T12:31:16;99660.53;;;18.42;57.07
10618;BME280;5356;43.526;26.534;2023-05-12T12:33:41;99659.72;;;18.41;57.09
10618;BME280;5356;43.526;26.534;2023-05-12T12:36:07;99663.50;;;18.40;56.60
10618;BME280;5356;43.526;26.534;2023-05-12T12:38:33;99656.28;;;18.51;56.33
10618;BME280;5356;43.526;26.534;2023-05-12T12:40:59;99652.84;;;18.60;55.29
10618;BME280;5356;43.526;26.534;2023-05-12T12:43:25;99659.28;;;18.54;54.52
10618;BME280;5356;43.526;26.534;2023-05-12T12:45:50;99649.63;;;18.63;54.12
10618;BME280;5356;43.526;26.534;2023-05-12T12:48:17;99648.75;;;18.53;53.01
10618;BME280;5356;43.526;26.534;2023-05-12T12:50:42;99651.34;;;18.43;53.19
10618;BME280;5356;43.526;26.534;2023-05-12T12:53:08;99644.63;;;18.45;53.02
10618;BME280;5356;43.526;26.534;2023-05-12T12:55:34;99648.41;;;18.44;53.09
10618;BME280;5356;43.526;26.534;2023-05-12T12:57:59;99642.75;;;18.40;53.28
10618;BME280;5356;43.526;26.534;2023-05-12T13:00:25;99646.16;;;18.31;52.84
10618;BME280;5356;43.526;26.534;2023-05-12T13:02:51;99646.91;;;18.21;53.28
10618;BME280;5356;43.526;26.534;2023-05-12T13:05:17;99640.97;;;18.19;52.79
10618;BME280;5356;43.526;26.534;2023-05-12T13:07:42;99636.31;;;18.09;52.86